Time;durP1;ratioP1;P1;durP2;ratioP2;P2;SDS_P1;SDS_P2;PMS_P1;PMS_P2;Temp;Humidity;BMP_temperature;BMP_pressure;BME280_temperature;BME280_humidity;BME280_pressure;Samples;Min_cycle;Max_cycle;Signal;HPM_P1;HPM_P2
2022/04/24 00:02:25;;;;;;;16.20;11.93;;;11.10;1.00;;;;;;5106064;28;20448;-62
2022/04/24 00:04:51;;;;;;;13.47;12.07;;;11.00;1.00;;;;;;5103992;28;20216;-61
2022/04/24 00:07:18;;;;;;;13.43;12.17;;;11.00;1.00;;;;;;5108292;28;20831;-61
2022/04/24 00:09:43;;;;;;;13.13;11.77;;;11.00;1.00;;;;;;5106643;27;20443;-61
2022/04/24 00:12:15;;;;;;;14.10;12.60;;;11.00;1.00;;;;;;5102202;28;20467;-61
2022/04/24 00:14:45;;;;;;;14.40;12.60;;;11.00;1.00;;;;;;5109008;28;20667;-60
2022/04/24 00:17:15;;;;;;;14.60;13.30;;;11.00;1.00;;;;;;5107734;27;20480;-61
2022/04/24 00:19:40;;;;;;;13.60;12.20;;;11.00;1.00;;;;;;5101078;28;20648;-62
2022/04/24 00:22:06;;;;;;;14.10;12.70;;;10.90;1.00;;;;;;5105153;27;21375;-60
2022/04/24 00:24:32;;;;;;;15.17;13.30;;;10.90;1.00;;;;;;5106570;28;20178;-59
2022/04/24 00:26:58;;;;;;;14.60;12.00;;;10.90;1.00;;;;;;5105629;27;20182;-64
2022/04/24 00:29:24;;;;;;;12.90;11.40;;;11.00;1.00;;;;;;5103792;27;20464;-62
2022/04/24 00:31:50;;;;;;;13.40;12.00;;;10.90;1.00;;;;;;5104015;28;20451;-62
2022/04/24 00:34:15;;;;;;;15.30;13.17;;;10.90;1.00;;;;;;5105540;28;20205;-61
2022/04/24 00:36:41;;;;;;;13.80;12.40;;;10.80;1.00;;;;;;5100816;28;20183;-62
2022/04/24 00:39:07;;;;;;;14.47;13.00;;;10.80;1.00;;;;;;5097336;28;20252;-61
2022/04/24 00:41:32;;;;;;;14.43;12.90;;;10.70;1.00;;;;;;5092472;28;20559;-62
2022/04/24 00:43:58;;;;;;;14.27;12.57;;;10.70;1.00;;;;;;5110839;28;20720;-62
2022/04/24 00:46:37;;;;;;;13.60;12.27;;;10.60;1.00;;;;;;5108243;28;20174;-62
2022/04/24 00:49:04;;;;;;;13.13;11.83;;;;;;;;;;5095813;28;20186;-59
2022/04/24 00:51:29;;;;;;;14.10;12.70;;;10.50;1.00;;;;;;5099603;28;20451;-60
2022/04/24 00:53:56;;;;;;;13.70;12.40;;;10.50;1.00;;;;;;5100275;28;20805;-60
2022/04/24 00:56:23;;;;;;;15.07;13.50;;;10.40;1.00;;;;;;5098458;28;20667;-61
2022/04/24 00:58:50;;;;;;;15.40;12.93;;;10.30;1.00;;;;;;5110163;28;20843;-61
2022/04/24 01:01:16;;;;;;;14.97;12.57;;;10.30;1.00;;;;;;5099196;28;20539;-61
2022/04/24 01:03:41;;;;;;;14.40;12.90;;;10.40;1.00;;;;;;5100458;28;20917;-59
2022/04/24 01:06:07;;;;;;;14.00;12.60;;;10.30;1.00;;;;;;5094235;28;20724;-61
2022/04/24 01:08:34;;;;;;;16.70;12.73;;;10.30;1.00;;;;;;5097227;28;20304;-61
2022/04/24 01:11:00;;;;;;;15.83;14.07;;;10.20;1.00;;;;;;5096690;28;20501;-60
2022/04/24 01:13:25;;;;;;;16.80;14.57;;;10.20;1.00;;;;;;5103866;28;20448;-60
2022/04/24 01:15:51;;;;;;;13.93;11.93;;;10.20;1.00;;;;;;5112140;28;20893;-62
2022/04/24 01:18:18;;;;;;;16.33;14.60;;;10.10;1.00;;;;;;5103473;28;20243;-60
2022/04/24 01:20:44;;;;;;;15.53;13.93;;;10.00;1.00;;;;;;5105698;28;20221;-61
2022/04/24 01:23:10;;;;;;;15.20;13.67;;;;;;;;;;5103688;28;20440;-60
2022/04/24 01:25:35;;;;;;;15.40;13.13;;;10.00;1.00;;;;;;5095384;28;20181;-61
2022/04/24 01:28:08;;;;;;;16.67;13.40;;;9.90;1.00;;;;;;5103837;28;20559;-58
2022/04/24 01:30:35;;;;;;;14.47;12.97;;;9.90;1.00;;;;;;5103366;28;20536;-60
2022/04/24 01:33:01;;;;;;;14.93;13.63;;;;;;;;;;5110814;28;20493;-61
2022/04/24 01:35:26;;;;;;;15.10;13.53;;;9.80;1.00;;;;;;5107050;28;20812;-61
2022/04/24 01:37:55;;;;;;;15.00;13.40;;;9.90;1.00;;;;;;5104961;28;20528;-61
2022/04/24 01:40:21;;;;;;;15.43;13.90;;;9.80;1.00;;;;;;5104390;28;20629;-61
2022/04/24 01:42:46;;;;;;;14.67;13.17;;;9.80;1.00;;;;;;5100274;28;20497;-62
2022/04/24 01:45:12;;;;;;;15.13;13.63;;;9.70;1.00;;;;;;5096387;28;20186;-61
2022/04/24 01:47:37;;;;;;;14.77;13.30;;;9.70;1.00;;;;;;5103324;28;20593;-60
2022/04/24 01:50:03;;;;;;;16.90;14.20;;;9.70;1.00;;;;;;5097430;28;20190;-61
2022/04/24 01:52:29;;;;;;;17.20;14.50;;;9.70;1.00;;;;;;5107171;28;20184;-61
2022/04/24 01:54:54;;;;;;;17.00;14.47;;;9.70;1.00;;;;;;5109579;28;20265;-62
2022/04/24 01:57:20;;;;;;;16.87;15.07;;;9.60;1.00;;;;;;5106221;28;20197;-61
2022/04/24 01:59:45;;;;;;;16.57;14.77;;;9.70;1.00;;;;;;5107144;28;20202;-60
2022/04/24 02:02:11;;;;;;;18.03;16.10;;;9.70;1.00;;;;;;5096780;28;20266;-61
2022/04/24 02:04:37;;;;;;;19.83;14.63;;;;;;;;;;5095638;28;20186;-61
2022/04/24 02:07:02;;;;;;;18.00;13.90;;;9.50;1.00;;;;;;5091958;28;20236;-62
2022/04/24 02:09:28;;;;;;;15.83;14.23;;;9.50;1.00;;;;;;5097222;28;20444;-61
2022/04/24 02:11:55;;;;;;;16.47;14.77;;;9.40;1.00;;;;;;5106172;28;20186;-61
2022/04/24 02:14:21;;;;;;;17.27;15.47;;;9.40;1.00;;;;;;5105981;28;20193;-61
2022/04/24 02:16:46;;;;;;;19.17;15.37;;;9.40;1.00;;;;;;5103112;28;20458;-60
2022/04/24 02:19:12;;;;;;;16.07;14.37;;;;;;;;;;5098884;28;20198;-61
2022/04/24 02:21:38;;;;;;;15.60;13.97;;;9.30;1.00;;;;;;5095763;28;20664;-60
2022/04/24 02:24:03;;;;;;;17.27;15.37;;;9.30;1.00;;;;;;5103409;28;20451;-61
2022/04/24 02:26:29;;;;;;;17.60;15.60;;;9.20;1.00;;;;;;5107068;28;20194;-60
2022/04/24 02:28:55;;;;;;;16.80;15.00;;;9.20;1.00;;;;;;5107284;28;20888;-60
2022/04/24 02:31:20;;;;;;;18.23;16.33;;;9.10;1.00;;;;;;5100357;28;20247;-59
2022/04/24 02:33:46;;;;;;;17.90;14.97;;;9.10;1.00;;;;;;5099866;28;20217;-59
2022/04/24 02:36:11;;;;;;;15.23;13.57;;;9.00;1.00;;;;;;5098478;28;20242;-58
2022/04/24 02:38:37;;;;;;;15.77;14.13;;;11.80;1.00;;;;;;5106473;28;20659;-63
2022/04/24 02:41:06;;;;;;;16.53;14.73;;;8.90;1.00;;;;;;5102713;28;20686;-60
2022/04/24 02:43:31;;;;;;;17.80;15.00;;;;;;;;;;5106806;28;20189;-61
2022/04/24 02:45:57;;;;;;;16.40;14.77;;;8.80;1.00;;;;;;5106145;28;20455;-60
2022/04/24 02:48:26;;;;;;;16.00;14.37;;;8.80;1.00;;;;;;5108771;28;20443;-61
2022/04/24 02:50:52;;;;;;;15.47;13.83;;;8.80;1.00;;;;;;5107847;28;20555;-60
2022/04/24 02:53:17;;;;;;;15.33;13.77;;;8.80;1.00;;;;;;5107753;28;20471;-60
2022/04/24 02:55:43;;;;;;;21.20;15.27;;;8.80;1.00;;;;;;5102333;28;20194;-60
2022/04/24 02:58:08;;;;;;;14.77;13.23;;;8.80;1.00;;;;;;5105926;28;20357;-61
2022/04/24 03:00:42;;;;;;;16.73;13.73;;;8.70;1.00;;;;;;5107619;28;20307;-60
2022/04/24 03:03:08;;;;;;;16.10;14.43;;;8.70;1.00;;;;;;5101942;28;20186;-60
2022/04/24 03:05:34;;;;;;;17.70;14.97;;;;;;;;;;5096207;28;20487;-60
2022/04/24 03:08:00;;;;;;;16.40;13.93;;;8.70;1.00;;;;;;5102710;28;20424;-60
2022/04/24 03:10:26;;;;;;;15.97;14.30;;;8.80;1.00;;;;;;5097428;28;20450;-59
2022/04/24 03:12:51;;;;;;;16.17;14.07;;;8.80;1.00;;;;;;5101333;28;20247;-59
2022/04/24 03:15:17;;;;;;;21.70;15.53;;;8.80;1.00;;;;;;5103502;28;20194;-61
2022/04/24 03:17:43;;;;;;;16.77;15.17;;;8.80;1.00;;;;;;5098575;28;20268;-61
2022/04/24 03:20:10;;;;;;;18.50;14.97;;;8.70;1.00;;;;;;5097370;28;20373;-60
2022/04/24 03:22:36;;;;;;;19.87;14.40;;;8.70;1.00;;;;;;5104789;28;20928;-61
2022/04/24 03:25:04;;;;;;;16.97;14.67;;;8.70;1.00;;;;;;5094741;28;20444;-60
2022/04/24 03:27:29;;;;;;;15.77;14.10;;;8.70;1.00;;;;;;5093584;28;20476;-60
2022/04/24 03:29:55;;;;;;;16.63;13.97;;;8.70;1.00;;;;;;5105672;28;20443;-60
2022/04/24 03:32:21;;;;;;;17.13;15.30;;;8.70;1.00;;;;;;5107914;28;20311;-60
2022/04/24 03:34:46;;;;;;;16.93;15.03;;;;;;;;;;5107985;28;20174;-61
2022/04/24 03:37:12;;;;;;;17.47;14.50;;;8.60;1.00;;;;;;5096938;28;20265;-60
2022/04/24 03:39:38;;;;;;;15.60;14.00;;;8.60;1.00;;;;;;5099770;28;20501;-58
2022/04/24 03:42:05;;;;;;;18.20;14.60;;;8.60;1.00;;;;;;5102116;28;20213;-59
2022/04/24 03:44:34;;;;;;;18.40;16.20;;;8.60;1.00;;;;;;5106895;28;20192;-61
2022/04/24 03:47:00;;;;;;;18.10;14.93;;;8.50;1.00;;;;;;5098131;28;20494;-61
2022/04/24 03:49:29;;;;;;;17.40;14.67;;;8.60;1.00;;;;;;5098571;28;20828;-59
2022/04/24 03:51:54;;;;;;;15.57;13.97;;;8.50;1.00;;;;;;5094009;28;20186;-60
2022/04/24 03:54:20;;;;;;;16.60;14.20;;;8.50;1.00;;;;;;5097875;28;20450;-61
2022/04/24 03:56:46;;;;;;;16.60;14.07;;;8.50;1.00;;;;;;5108835;28;20201;-59
2022/04/24 03:59:12;;;;;;;17.50;14.60;;;8.40;1.00;;;;;;5093497;28;20456;-60
2022/04/24 04:01:37;;;;;;;16.00;14.13;;;8.40;1.00;;;;;;5104910;28;20182;-60
2022/04/24 04:04:03;;;;;;;17.80;14.93;;;8.50;1.00;;;;;;5104737;28;20281;-61
2022/04/24 04:06:29;;;;;;;16.40;13.40;;;8.50;1.00;;;;;;5099217;28;20309;-60
2022/04/24 04:08:54;;;;;;;15.47;13.87;;;8.40;1.00;;;;;;5094969;28;20267;-62
2022/04/24 04:11:20;;;;;;;15.87;13.77;;;8.40;1.00;;;;;;5100087;28;20687;-60
2022/04/24 04:13:46;;;;;;;14.77;13.20;;;8.40;1.00;;;;;;5093247;28;20193;-60
2022/04/24 04:16:11;;;;;;;17.77;14.40;;;8.40;1.00;;;;;;5105742;28;20191;-60
2022/04/24 04:18:37;;;;;;;15.37;13.63;;;8.50;1.00;;;;;;5109558;28;20217;-60
2022/04/24 04:21:02;;;;;;;17.90;13.40;;;8.50;1.00;;;;;;5100498;28;20222;-60
2022/04/24 04:23:28;;;;;;;17.67;14.67;;;8.50;1.00;;;;;;5099820;28;20182;-59
2022/04/24 04:25:53;;;;;;;15.53;13.70;;;8.60;1.00;;;;;;5112471;28;20261;-60
2022/04/24 04:28:19;;;;;;;16.40;14.33;;;8.70;1.00;;;;;;5103230;28;20194;-60
2022/04/24 04:30:44;;;;;;;16.43;13.90;;;8.70;1.00;;;;;;5102419;28;20174;-61
2022/04/24 04:33:10;;;;;;;18.50;14.20;;;8.80;1.00;;;;;;5111707;28;20190;-61
2022/04/24 04:35:36;;;;;;;18.57;14.80;;;8.80;1.00;;;;;;5111603;28;20669;-60
2022/04/24 04:38:02;;;;;;;17.47;13.40;;;8.90;1.00;;;;;;5111682;28;20190;-60
2022/04/24 04:40:30;;;;;;;15.47;13.83;;;9.00;1.00;;;;;;5107837;28;22439;-60
2022/04/24 04:42:56;;;;;;;15.23;13.67;;;9.20;1.00;;;;;;5110932;28;20547;-60
2022/04/24 04:45:22;;;;;;;15.03;13.50;;;9.30;1.00;;;;;;5096572;28;20461;-61
2022/04/24 04:47:47;;;;;;;15.87;14.27;;;9.20;1.00;;;;;;5103993;28;20182;-60
2022/04/24 04:50:13;;;;;;;15.77;14.13;;;9.10;1.00;;;;;;5102083;28;20450;-61
2022/04/24 04:52:39;;;;;;;17.33;13.40;;;9.20;1.00;;;;;;5109142;28;20185;-60
2022/04/24 04:55:06;;;;;;;16.00;14.37;;;9.20;1.00;;;;;;5106273;28;20490;-62
2022/04/24 04:57:32;;;;;;;17.10;13.90;;;10.90;1.00;;;;;;5100072;28;20198;-62
2022/04/24 04:59:57;;;;;;;16.67;15.00;;;9.30;1.00;;;;;;5108291;28;20491;-60
2022/04/24 05:02:23;;;;;;;14.73;12.93;;;9.30;1.00;;;;;;5107873;28;20198;-60
2022/04/24 05:04:49;;;;;;;15.20;13.63;;;9.60;1.00;;;;;;5106235;28;20217;-60
2022/04/24 05:07:14;;;;;;;15.73;14.10;;;9.80;1.00;;;;;;5105834;28;20656;-60
2022/04/24 05:09:40;;;;;;;17.97;14.70;;;10.00;1.00;;;;;;5104775;28;20200;-61
2022/04/24 05:12:07;;;;;;;15.93;14.33;;;10.10;1.00;;;;;;5106666;28;20198;-61
2022/04/24 05:14:32;;;;;;;16.40;13.90;;;10.30;1.00;;;;;;5106758;28;20455;-61
2022/04/24 05:16:59;;;;;;;15.70;14.10;;;10.40;1.00;;;;;;5100085;28;20447;-61
2022/04/24 05:19:25;;;;;;;14.20;12.73;;;10.70;1.00;;;;;;5101883;28;20221;-62
2022/04/24 05:21:52;;;;;;;17.43;15.23;;;10.60;1.00;;;;;;5103952;28;22393;-60
2022/04/24 05:24:18;;;;;;;15.73;14.13;;;;;;;;;;5100556;28;20440;-62
2022/04/24 05:26:44;;;;;;;15.63;13.90;;;10.70;1.00;;;;;;5102474;28;20448;-60
2022/04/24 05:29:10;;;;;;;15.23;13.80;;;10.70;1.00;;;;;;5102582;28;20449;-59
2022/04/24 05:31:36;;;;;;;15.50;13.90;;;10.80;1.00;;;;;;5101780;28;20447;-60
2022/04/24 05:34:01;;;;;;;15.10;13.50;;;11.00;1.00;;;;;;5105556;28;20197;-59
2022/04/24 05:36:27;;;;;;;17.90;14.37;;;11.10;1.00;;;;;;5101324;28;20194;-60
2022/04/24 05:38:52;;;;;;;15.90;14.13;;;11.30;1.00;;;;;;5100635;28;20193;-62
2022/04/24 05:41:18;;;;;;;15.53;13.93;;;11.40;1.00;;;;;;5100897;28;20206;-61
2022/04/24 05:43:43;;;;;;;17.60;13.80;;;11.80;1.00;;;;;;5100448;28;20190;-60
2022/04/24 05:46:09;;;;;;;16.77;15.10;;;12.00;1.00;;;;;;5100432;28;20189;-60
2022/04/24 05:48:35;;;;;;;15.80;13.60;;;;;;;;;;5101576;28;20182;-61
2022/04/24 05:51:00;;;;;;;15.23;13.53;;;9.70;1.00;;;;;;5104738;28;20269;-61
2022/04/24 05:53:26;;;;;;;17.53;15.73;;;12.20;1.00;;;;;;5103724;28;20509;-62
2022/04/24 05:55:51;;;;;;;16.10;14.30;;;12.30;1.00;;;;;;5105695;28;20956;-60
2022/04/24 05:58:17;;;;;;;15.43;13.93;;;12.10;1.00;;;;;;5101551;28;20191;-61
2022/04/24 06:00:43;;;;;;;15.60;14.10;;;12.10;1.00;;;;;;5097532;28;20297;-61
2022/04/24 06:03:08;;;;;;;17.37;14.70;;;12.10;1.00;;;;;;5100917;28;20190;-59
2022/04/24 06:05:35;;;;;;;16.90;15.10;;;12.00;1.00;;;;;;5103424;28;20551;-61
2022/04/24 06:08:02;;;;;;;15.73;14.23;;;12.00;1.00;;;;;;5099425;28;20194;-60
2022/04/24 06:10:27;;;;;;;16.53;14.83;;;12.10;1.00;;;;;;5104025;28;20440;-61
2022/04/24 06:12:54;;;;;;;17.37;15.20;;;12.10;1.00;;;;;;5099857;28;20771;-61
2022/04/24 06:15:25;;;;;;;17.77;15.83;;;12.10;1.00;;;;;;5102787;28;20390;-61
2022/04/24 06:17:52;;;;;;;16.77;15.00;;;12.20;1.00;;;;;;5103981;28;20466;-61
2022/04/24 06:20:19;;;;;;;18.30;15.90;;;12.20;1.00;;;;;;5097298;28;20475;-60
2022/04/24 06:22:46;;;;;;;16.30;14.70;;;12.10;1.00;;;;;;5101253;28;20806;-61
2022/04/24 06:25:17;;;;;;;18.20;14.90;;;12.00;1.00;;;;;;5101906;28;20447;-60
2022/04/24 06:27:43;;;;;;;16.53;14.83;;;11.70;1.00;;;;;;5105802;28;21077;-61
2022/04/24 06:30:11;;;;;;;17.27;15.57;;;11.60;1.00;;;;;;5106557;28;20452;-61
2022/04/24 06:32:41;;;;;;;20.07;15.80;;;11.70;1.00;;;;;;5102963;28;20447;-62
2022/04/24 06:35:09;;;;;;;17.97;15.90;;;11.80;1.00;;;;;;5097098;28;20552;-62
2022/04/24 06:37:36;;;;;;;17.33;14.67;;;12.00;1.00;;;;;;5104593;28;20930;-61
2022/04/24 06:40:02;;;;;;;18.27;15.67;;;12.20;1.00;;;;;;5103018;28;21053;-60
2022/04/24 06:42:28;;;;;;;16.53;14.33;;;12.30;1.00;;;;;;5102665;28;20930;-61
2022/04/24 06:44:56;;;;;;;17.40;15.47;;;12.20;1.00;;;;;;5101831;28;20436;-60
2022/04/24 06:47:22;;;;;;;17.53;15.77;;;12.20;1.00;;;;;;5100022;28;20264;-60
2022/04/24 06:49:47;;;;;;;17.60;15.80;;;14.90;1.00;;;;;;5102772;28;20577;-60
2022/04/24 06:52:13;;;;;;;17.70;15.83;;;12.40;1.00;;;;;;5105414;28;20198;-60
2022/04/24 06:54:38;;;;;;;18.10;16.20;;;12.20;1.00;;;;;;5103070;28;20194;-60
2022/04/24 06:57:04;;;;;;;16.47;14.87;;;12.30;1.00;;;;;;5099094;28;20197;-61
2022/04/24 06:59:30;;;;;;;16.33;14.67;;;12.40;1.00;;;;;;5102211;28;20210;-61
2022/04/24 07:01:55;;;;;;;17.47;15.80;;;12.60;1.00;;;;;;5104155;28;20452;-62
2022/04/24 07:04:21;;;;;;;17.50;15.60;;;12.80;1.00;;;;;;5097417;28;20186;-62
2022/04/24 07:06:47;;;;;;;17.07;15.27;;;12.80;1.00;;;;;;5106295;28;20222;-61
2022/04/24 07:09:12;;;;;;;16.97;15.23;;;13.00;1.00;;;;;;5097360;28;20791;-60
2022/04/24 07:11:38;;;;;;;17.97;16.13;;;13.20;1.00;;;;;;5109980;28;20246;-60
2022/04/24 07:14:03;;;;;;;18.20;16.50;;;13.40;1.00;;;;;;5106400;28;20190;-61
2022/04/24 07:16:29;;;;;;;17.97;16.13;;;13.40;1.00;;;;;;5104518;28;20201;-61
2022/04/24 07:18:54;;;;;;;17.10;15.40;;;13.60;1.00;;;;;;5096239;28;20194;-61
2022/04/24 07:21:20;;;;;;;17.10;15.30;;;13.80;1.00;;;;;;5101455;28;20229;-62
2022/04/24 07:23:45;;;;;;;17.53;15.83;;;14.20;1.00;;;;;;5102475;28;20266;-60
2022/04/24 07:26:12;;;;;;;17.80;16.00;;;;;;;;;;5104237;28;20670;-64
2022/04/24 07:28:37;;;;;;;16.40;14.70;;;14.30;1.00;;;;;;5099919;28;20232;-64
2022/04/24 07:31:06;;;;;;;17.73;15.70;;;14.60;1.00;;;;;;5100914;28;20452;-64
2022/04/24 07:33:32;;;;;;;16.40;14.80;;;14.80;1.00;;;;;;5105708;28;20182;-62
2022/04/24 07:35:57;;;;;;;17.33;15.63;;;14.90;1.00;;;;;;5111202;28;20452;-62
2022/04/24 07:38:23;;;;;;;16.37;14.77;;;15.50;1.00;;;;;;5109578;28;20209;-63
2022/04/24 07:40:48;;;;;;;18.13;16.20;;;15.70;1.00;;;;;;5103687;28;20285;-65
2022/04/24 07:43:14;;;;;;;16.57;14.83;;;15.70;1.00;;;;;;5108695;28;20253;-63
2022/04/24 07:45:42;;;;;;;15.30;13.80;;;15.80;1.00;;;;;;5101006;28;20240;-62
2022/04/24 07:48:11;;;;;;;16.20;14.70;;;15.70;1.00;;;;;;5108481;28;20193;-63
2022/04/24 07:50:38;;;;;;;16.73;15.20;;;15.60;1.00;;;;;;5109146;28;20567;-62
2022/04/24 07:53:04;;;;;;;15.90;14.30;;;15.60;1.00;;;;;;5110366;28;20439;-62
2022/04/24 07:55:30;;;;;;;16.80;15.00;;;15.70;1.00;;;;;;5106786;28;20433;-62
2022/04/24 07:57:57;;;;;;;17.43;15.50;;;15.70;1.00;;;;;;5108771;28;20479;-62
2022/04/24 08:00:28;;;;;;;16.73;15.03;;;15.80;1.00;;;;;;5109185;28;20435;-62
2022/04/24 08:03:02;;;;;;;16.97;15.37;;;15.80;1.00;;;;;;5106348;28;20442;-62
2022/04/24 08:05:34;;;;;;;16.60;14.97;;;15.70;1.00;;;;;;5110795;28;20454;-61
2022/04/24 08:08:02;;;;;;;17.70;15.93;;;15.70;1.00;;;;;;5106083;28;20441;-62
2022/04/24 08:10:31;;;;;;;17.80;16.10;;;15.60;1.00;;;;;;5095157;28;20439;-62
2022/04/24 08:12:57;;;;;;;20.77;17.20;;;15.60;1.00;;;;;;5104290;28;20746;-62
2022/04/24 08:15:23;;;;;;;17.77;16.00;;;15.90;1.00;;;;;;5105337;28;20436;-62
2022/04/24 08:17:49;;;;;;;19.43;17.47;;;16.20;1.00;;;;;;5107187;28;20445;-62
2022/04/24 08:20:16;;;;;;;18.30;16.40;;;16.50;1.00;;;;;;5108589;28;20527;-62
2022/04/24 08:22:50;;;;;;;19.20;17.20;;;16.60;1.00;;;;;;5106102;28;20544;-63
2022/04/24 08:25:19;;;;;;;19.40;17.40;;;16.80;1.00;;;;;;5106293;28;20445;-63
2022/04/24 08:27:46;;;;;;;19.40;17.47;;;16.80;1.00;;;;;;5108351;28;20492;-63
2022/04/24 08:30:13;;;;;;;18.37;16.53;;;;;;;;;;5109232;28;20505;-64
2022/04/24 08:32:39;;;;;;;18.73;16.93;;;17.40;1.00;;;;;;5107419;28;20443;-63
2022/04/24 08:35:07;;;;;;;17.80;16.10;;;17.40;1.00;;;;;;5107435;28;20494;-63
2022/04/24 08:37:32;;;;;;;18.37;16.33;;;17.10;1.00;;;;;;5109300;28;20530;-62
2022/04/24 08:39:58;;;;;;;17.80;16.00;;;17.00;1.00;;;;;;5108331;28;20578;-62
2022/04/24 08:42:24;;;;;;;18.53;16.70;;;17.10;1.00;;;;;;5107666;28;20235;-62
2022/04/24 08:44:56;;;;;;;17.93;15.90;;;17.00;1.00;;;;;;5106992;28;20501;-62
2022/04/24 08:47:23;;;;;;;15.33;13.90;;;17.00;1.00;;;;;;5105174;28;20440;-63
2022/04/24 08:49:49;;;;;;;14.83;13.43;;;16.90;1.00;;;;;;5107969;28;20486;-63
2022/04/24 08:52:16;;;;;;;14.17;12.87;;;16.70;1.00;;;;;;5107806;28;20440;-62
2022/04/24 08:54:42;;;;;;;14.37;13.03;;;16.20;1.00;;;;;;5103726;28;20432;-62
2022/04/24 08:57:09;;;;;;;13.83;12.47;;;16.20;1.00;;;;;;5105032;28;20432;-63
2022/04/24 08:59:36;;;;;;;13.13;11.80;;;16.20;1.00;;;;;;5103036;28;20456;-64
2022/04/24 09:02:01;;;;;;;12.10;10.83;;;16.30;1.00;;;;;;5104443;28;20447;-63
2022/04/24 09:04:30;;;;;;;11.50;10.30;;;16.20;1.00;;;;;;5110953;28;20452;-63
2022/04/24 09:06:56;;;;;;;12.07;10.23;;;16.20;1.00;;;;;;5108747;28;20297;-62
2022/04/24 09:09:22;;;;;;;11.00;10.10;;;;;;;;;;5106408;28;20455;-62
2022/04/24 09:11:48;;;;;;;9.37;8.47;;;16.30;1.00;;;;;;5100967;28;20445;-64
2022/04/24 09:14:20;;;;;;;9.30;8.40;;;16.20;1.00;;;;;;5098941;28;20968;-63
2022/04/24 09:16:48;;;;;;;8.10;7.40;;;16.10;1.00;;;;;;5101278;28;20182;-62
2022/04/24 09:19:20;;;;;;;9.50;8.70;;;16.20;1.00;;;;;;5109453;28;20444;-62
2022/04/24 09:21:46;;;;;;;10.47;9.20;;;16.20;1.00;;;;;;5106086;28;20451;-62
2022/04/24 09:24:12;;;;;;;9.20;8.30;;;16.40;1.00;;;;;;5105350;28;20448;-61
2022/04/24 09:26:37;;;;;;;11.43;9.30;;;16.40;1.00;;;;;;5112161;28;20443;-62
2022/04/24 09:29:11;;;;;;;9.10;8.30;;;16.50;1.00;;;;;;5109173;28;20198;-62
2022/04/24 09:31:37;;;;;;;10.30;9.00;;;;;;;;;;5103195;28;20185;-62
2022/04/24 09:34:03;;;;;;;10.27;9.27;;;16.20;1.00;;;;;;5105599;28;20805;-62
2022/04/24 09:36:29;;;;;;;12.80;10.47;;;;;;;;;;5102711;28;20850;-62
2022/04/24 09:38:54;;;;;;;13.93;12.43;;;16.20;1.00;;;;;;5105190;28;20190;-63
2022/04/24 09:41:22;;;;;;;10.77;9.73;;;16.20;1.00;;;;;;5098160;28;20773;-62
2022/04/24 09:43:48;;;;;;;16.43;12.70;;;16.10;1.00;;;;;;5107228;28;20190;-63
2022/04/24 09:46:29;;;;;;;13.10;11.30;;;16.00;1.00;;;;;;5108601;28;20415;-62
2022/04/24 09:49:00;;;;;;;11.80;10.60;;;15.90;1.00;;;;;;5107936;28;20443;-63
2022/04/24 09:51:26;;;;;;;12.23;10.93;;;15.80;1.00;;;;;;5110046;28;21155;-62
2022/04/24 09:53:57;;;;;;;13.23;10.83;;;15.70;1.00;;;;;;5100349;28;20441;-63
2022/04/24 09:56:26;;;;;;;12.20;11.00;;;15.70;1.00;;;;;;5108697;28;20444;-62
2022/04/24 09:58:52;;;;;;;12.97;10.10;;;15.60;1.00;;;;;;5105677;28;20528;-66
2022/04/24 10:01:18;;;;;;;11.77;10.60;;;15.70;1.00;;;;;;5098496;28;20547;-65
2022/04/24 10:03:45;;;;;;;11.20;10.10;;;15.70;1.00;;;;;;5094875;28;20194;-66
2022/04/24 10:06:11;;;;;;;11.40;10.40;;;15.60;1.00;;;;;;5104333;28;20471;-65
2022/04/24 10:08:38;;;;;;;12.57;11.27;;;15.60;1.00;;;;;;5103591;28;20539;-64
2022/04/24 10:11:10;;;;;;;13.57;10.97;;;15.60;1.00;;;;;;5093736;28;20199;-64
2022/04/24 10:13:41;;;;;;;12.90;11.27;;;15.70;1.00;;;;;;5098866;28;20452;-64
2022/04/24 10:16:26;;;;;;;12.40;11.10;;;15.60;1.00;;;;;;5103280;28;20529;-65
2022/04/24 10:19:18;;;;;;;14.00;12.70;;;15.70;1.00;;;;;;5097992;28;20470;-66
2022/04/24 10:22:21;;;;;;;11.77;10.67;;;15.50;1.00;;;;;;5097898;28;20462;-65
2022/04/24 10:24:47;;;;;;;13.50;12.20;;;15.50;1.00;;;;;;5105019;28;20451;-66
2022/04/24 10:27:12;;;;;;;13.30;12.00;;;15.40;1.00;;;;;;5102235;28;20460;-64
2022/04/24 10:29:49;;;;;;;12.47;11.03;;;15.40;1.00;;;;;;5098415;28;20201;-65
2022/04/24 10:32:30;;;;;;;12.23;10.97;;;15.20;1.00;;;;;;5103855;28;20186;-65
2022/04/24 10:34:56;;;;;;;12.43;11.13;;;15.10;1.00;;;;;;5096550;28;20440;-65
2022/04/24 10:37:33;;;;;;;13.00;11.70;;;14.90;1.00;;;;;;5096917;28;20630;-65
2022/04/24 10:40:00;;;;;;;11.13;10.03;;;14.90;1.00;;;;;;5104794;28;20441;-66
2022/04/24 10:42:29;;;;;;;9.80;8.90;;;14.90;1.00;;;;;;5102212;28;20504;-65
2022/04/24 10:44:55;;;;;;;10.43;9.33;;;14.60;1.00;;;;;;5102120;28;20906;-65
2022/04/24 10:47:20;;;;;;;9.77;8.87;;;14.60;1.00;;;;;;5098789;28;20432;-65
2022/04/24 10:49:46;;;;;;;9.60;8.70;;;14.60;1.00;;;;;;5098663;28;20186;-67
2022/04/24 10:52:12;;;;;;;9.13;7.90;;;14.50;1.00;;;;;;5095685;28;20198;-66
2022/04/24 10:54:39;;;;;;;11.50;9.60;;;14.40;1.00;;;;;;5102520;28;20182;-67
2022/04/24 10:57:19;;;;;;;9.37;8.37;;;14.40;1.00;;;;;;5102602;28;20667;-68
2022/04/24 10:59:51;;;;;;;10.00;9.00;;;14.40;1.00;;;;;;5097674;28;20485;-67
2022/04/24 11:02:43;;;;;;;10.10;8.87;;;14.40;1.00;;;;;;5092563;28;20833;-67
2022/04/24 11:05:10;;;;;;;9.10;8.20;;;14.40;1.00;;;;;;5099362;28;20558;-65
2022/04/24 11:07:36;;;;;;;9.90;8.93;;;14.20;1.00;;;;;;5105080;28;20448;-68
2022/04/24 11:10:10;;;;;;;10.57;9.47;;;14.10;1.00;;;;;;5100306;28;20570;-67
2022/04/24 11:12:37;;;;;;;10.53;9.53;;;14.10;1.00;;;;;;5108445;28;20932;-68
2022/04/24 11:15:03;;;;;;;10.17;9.17;;;14.20;1.00;;;;;;5096479;28;20496;-68
2022/04/24 11:17:29;;;;;;;10.60;9.37;;;14.10;1.00;;;;;;5102970;28;20467;-68
2022/04/24 11:20:00;;;;;;;10.33;9.33;;;14.10;1.00;;;;;;5103209;28;20502;-69
2022/04/24 11:22:25;;;;;;;8.50;7.80;;;14.10;1.00;;;;;;5101737;28;20182;-67
2022/04/24 11:24:55;;;;;;;9.40;8.50;;;13.80;1.00;;;;;;5107165;28;20777;-67
2022/04/24 11:27:25;;;;;;;9.30;8.40;;;16.90;1.00;;;;;;5099738;28;20207;-65
2022/04/24 11:29:51;;;;;;;8.83;7.93;;;13.70;1.00;;;;;;5098935;28;20519;-63
2022/04/24 11:32:18;;;;;;;10.80;9.70;;;13.70;1.00;;;;;;5097136;28;20566;-65
2022/04/24 11:34:45;;;;;;;13.53;11.47;;;13.60;1.00;;;;;;5099137;28;20274;-64
2022/04/24 11:37:11;;;;;;;10.60;9.50;;;;;;;;;;5100291;28;20447;-65
2022/04/24 11:39:40;;;;;;;14.50;10.83;;;13.70;1.00;;;;;;5104000;28;20463;-65
2022/04/24 11:42:06;;;;;;;12.37;10.73;;;13.80;1.00;;;;;;5097813;28;20451;-64
2022/04/24 11:50:14;;;;;;;10.80;9.70;;;;;;;;;;5101960;28;20466;-67
2022/04/24 11:52:46;;;;;;;12.17;10.70;;;13.90;1.00;;;;;;5097348;28;20447;-66
2022/04/24 11:56:16;;;;;;;12.03;10.90;;;14.00;1.00;;;;;;5098317;28;20448;-68
2022/04/24 11:58:17;;;;;;;12.97;11.67;;;14.10;1.00;;;;;;5092174;28;20867;-66
2022/04/24 12:00:42;;;;;;;14.30;12.80;;;14.20;1.00;;;;;;5092809;28;20567;-65
2022/04/24 12:03:08;;;;;;;18.07;13.10;;;14.60;1.00;;;;;;5095167;28;20533;-63
2022/04/24 12:05:34;;;;;;;13.83;12.20;;;14.70;1.00;;;;;;5103427;28;20234;-66
2022/04/24 12:08:01;;;;;;;13.53;12.13;;;14.70;1.00;;;;;;5098512;28;20185;-65
2022/04/24 12:10:27;;;;;;;13.50;12.17;;;14.70;1.00;;;;;;5101806;28;20422;-65
2022/04/24 12:12:53;;;;;;;15.87;13.30;;;14.60;1.00;;;;;;5108440;28;20534;-66
2022/04/24 12:15:22;;;;;;;13.83;12.37;;;14.60;1.00;;;;;;5103663;28;20281;-65
2022/04/24 12:17:58;;;;;;;14.27;11.90;;;14.60;1.00;;;;;;5103724;28;20846;-66
2022/04/24 12:20:41;;;;;;;13.00;11.70;;;14.60;1.00;;;;;;5098281;28;21957;-66
2022/04/24 12:23:11;;;;;;;13.70;12.37;;;;;;;;;;5092371;28;20771;-67
2022/04/24 12:25:59;;;;;;;13.33;12.03;;;14.60;1.00;;;;;;5101848;28;20440;-66
2022/04/24 12:28:31;;;;;;;12.93;11.70;;;14.50;1.00;;;;;;5103381;28;20475;-68
2022/04/24 12:30:58;;;;;;;13.57;12.27;;;14.50;1.00;;;;;;5106284;28;20444;-69
2022/04/24 12:33:24;;;;;;;16.63;14.77;;;;;;;;;;5102650;28;20443;-67
2022/04/24 12:35:50;;;;;;;15.00;13.50;;;;;;;;;;5100339;28;20451;-67
2022/04/24 12:38:19;;;;;;;14.23;12.40;;;14.70;1.00;;;;;;5100009;28;20430;-67
2022/04/24 12:40:59;;;;;;;15.57;13.97;;;14.70;1.00;;;;;;5103741;28;20524;-69
2022/04/24 12:43:30;;;;;;;16.10;14.50;;;14.80;1.00;;;;;;5106750;28;20440;-68
2022/04/24 12:45:56;;;;;;;16.13;13.70;;;14.80;1.00;;;;;;5101614;28;20968;-70
2022/04/24 12:48:23;;;;;;;14.80;13.37;;;14.80;1.00;;;;;;5104064;27;20482;-70
2022/04/24 12:50:50;;;;;;;14.33;12.67;;;14.90;1.00;;;;;;5099256;28;20484;-69
2022/04/24 12:53:17;;;;;;;14.57;13.17;;;14.90;1.00;;;;;;5100632;28;20965;-67
2022/04/24 12:55:44;;;;;;;13.80;12.50;;;14.80;1.00;;;;;;5103248;28;20448;-68